Time;durP1;ratioP1;P1;durP2;ratioP2;P2;SDS_P1;SDS_P2;PMS_P1;PMS_P2;Temp;Humidity;BMP_temperature;BMP_pressure;BME280_temperature;BME280_humidity;BME280_pressure;Samples;Min_cycle;Max_cycle;Signal;HPM_P1;HPM_P2
2020/12/05 00:02:19;;;;;;;7.90;1.85;;;7.40;99.90;;;;;;5112125;28;20427;-46
2020/12/05 00:04:45;;;;;;;10.95;1.85;;;7.50;99.90;;;;;;5112468;28;20030;-47
2020/12/05 00:07:11;;;;;;;7.28;1.60;;;7.50;99.90;;;;;;5112885;28;20032;-47
2020/12/05 00:09:37;;;;;;;10.38;1.63;;;7.40;99.90;;;;;;5112801;28;20036;-47
2020/12/05 00:12:09;;;;;;;15.85;2.05;;;7.20;99.90;;;;;;5106131;27;20549;-46
2020/12/05 00:14:35;;;;;;;6.40;1.52;;;7.10;99.90;;;;;;5108600;28;20032;-46
2020/12/05 00:17:01;;;;;;;13.35;1.70;;;7.00;99.90;;;;;;5111119;28;20039;-46
2020/12/05 00:19:27;;;;;;;8.35;1.83;;;6.90;99.90;;;;;;5112156;28;20465;-46
2020/12/05 00:21:57;;;;;;;7.50;2.05;;;6.90;99.90;;;;;;5110586;28;20047;-47
2020/12/05 00:24:24;;;;;;;11.45;2.05;;;6.80;99.90;;;;;;5111508;28;20031;-46
2020/12/05 00:26:54;;;;;;;10.98;1.75;;;6.80;99.90;;;;;;5108202;28;20050;-48
2020/12/05 00:29:20;;;;;;;8.13;1.52;;;6.80;99.90;;;;;;5109294;28;20040;-47
2020/12/05 00:31:53;;;;;;;6.30;2.20;;;7.10;99.90;;;;;;5110732;28;20466;-46
2020/12/05 00:34:19;;;;;;;15.93;3.50;;;7.30;99.90;;;;;;5112181;28;20035;-46
2020/12/05 00:36:45;;;;;;;12.75;2.90;;;7.30;99.90;;;;;;5112180;28;20047;-46
2020/12/05 00:39:11;;;;;;;7.30;2.28;;;7.30;99.90;;;;;;5112305;28;20032;-46
2020/12/05 00:41:37;;;;;;;20.80;2.65;;;7.20;99.90;;;;;;5111312;28;20067;-48
2020/12/05 00:44:03;;;;;;;12.98;2.15;;;7.10;99.90;;;;;;5104150;28;20035;-45
2020/12/05 00:46:29;;;;;;;19.33;1.90;;;7.10;99.90;;;;;;5112122;28;20051;-46
2020/12/05 00:48:54;;;;;;;12.43;1.85;;;7.10;99.90;;;;;;5111501;28;20070;-45
2020/12/05 00:51:20;;;;;;;16.23;1.80;;;6.90;99.90;;;;;;5110827;28;20485;-45
2020/12/05 00:53:45;;;;;;;10.40;1.67;;;6.90;99.90;;;;;;5111946;28;20466;-47
2020/12/05 00:56:17;;;;;;;3.88;1.75;;;6.80;99.90;;;;;;5111337;28;20024;-46
2020/12/05 00:58:42;;;;;;;6.82;1.58;;;6.70;99.90;;;;;;5109834;28;20027;-46
2020/12/05 01:01:08;;;;;;;12.18;2.15;;;6.70;99.90;;;;;;5111318;28;20562;-46
2020/12/05 01:03:34;;;;;;;9.63;1.80;;;6.80;99.90;;;;;;5111536;28;20032;-46
2020/12/05 01:05:59;;;;;;;7.45;1.77;;;6.90;99.90;;;;;;5111677;28;20687;-46
2020/12/05 01:08:25;;;;;;;10.68;1.75;;;7.00;99.90;;;;;;5112072;28;20326;-46
2020/12/05 01:10:51;;;;;;;9.68;1.60;;;7.00;99.90;;;;;;5111662;28;20474;-46
2020/12/05 01:13:16;;;;;;;12.27;2.03;;;7.00;99.90;;;;;;5104902;27;20030;-46
2020/12/05 01:15:42;;;;;;;8.02;1.77;;;7.00;99.90;;;;;;5111609;28;20116;-45
2020/12/05 01:18:09;;;;;;;10.27;1.92;;;7.00;99.90;;;;;;5110145;28;20062;-46
2020/12/05 01:20:34;;;;;;;11.43;2.08;;;6.90;99.90;;;;;;5110998;28;20085;-48
2020/12/05 01:23:00;;;;;;;13.90;1.90;;;6.80;99.90;;;;;;5110990;28;20027;-46
2020/12/05 01:25:26;;;;;;;7.50;1.90;;;6.70;99.90;;;;;;5110153;28;20390;-46
2020/12/05 01:27:51;;;;;;;10.48;1.85;;;6.70;99.90;;;;;;5109009;28;20024;-45
2020/12/05 01:30:17;;;;;;;11.35;1.90;;;6.70;99.90;;;;;;5110814;28;20031;-47
2020/12/05 01:32:42;;;;;;;14.15;2.00;;;6.60;99.90;;;;;;5110816;28;20029;-46
2020/12/05 01:35:08;;;;;;;9.02;2.20;;;6.60;99.90;;;;;;5111392;28;20051;-48
2020/12/05 01:37:34;;;;;;;17.48;2.10;;;6.60;99.90;;;;;;5110919;28;20051;-46
2020/12/05 01:39:59;;;;;;;22.80;2.58;;;6.70;99.90;;;;;;5111062;28;20024;-46
2020/12/05 01:42:25;;;;;;;12.45;2.08;;;6.90;99.90;;;;;;5108662;27;20085;-46
2020/12/05 01:44:51;;;;;;;10.43;1.90;;;7.10;99.90;;;;;;5109116;28;20084;-45
2020/12/05 01:47:18;;;;;;;13.10;2.38;;;7.40;99.90;;;;;;5110671;28;20032;-47
2020/12/05 01:49:44;;;;;;;11.15;2.10;;;7.50;99.90;;;;;;5111065;28;20020;-48
2020/12/05 01:52:10;;;;;;;7.55;1.65;;;7.50;99.90;;;;;;5111095;28;20028;-48
2020/12/05 01:54:36;;;;;;;7.97;1.77;;;7.10;99.90;;;;;;5110898;28;20032;-49
2020/12/05 01:57:05;;;;;;;11.80;1.80;;;6.70;99.90;;;;;;5110836;28;20423;-49
2020/12/05 01:59:31;;;;;;;14.88;2.30;;;6.40;99.90;;;;;;5091314;28;20036;-51
2020/12/05 02:02:01;;;;;;;14.45;2.58;;;6.20;99.90;;;;;;5108365;28;20047;-52
2020/12/05 02:04:35;;;;;;;12.10;2.00;;;6.10;99.90;;;;;;5110550;28;20028;-53
2020/12/05 02:07:16;;;;;;;22.50;2.15;;;6.20;99.90;;;;;;5110826;28;20035;-52
2020/12/05 02:09:45;;;;;;;9.88;2.75;;;6.10;99.90;;;;;;5110668;28;20046;-52
2020/12/05 02:13:08;;;;;;;13.80;2.55;;;6.20;99.90;;;;;;5110592;28;20182;-51
2020/12/05 02:15:34;;;;;;;13.73;2.45;;;6.30;99.90;;;;;;5066735;28;20118;-51
2020/12/05 02:18:04;;;;;;;13.02;2.28;;;6.60;99.90;;;;;;5066655;28;20112;-52
2020/12/05 02:20:33;;;;;;;12.40;2.30;;;6.70;99.90;;;;;;5083748;28;20035;-54
2020/12/05 02:23:12;;;;;;;14.63;3.03;;;6.80;99.90;;;;;;5110297;28;20023;-52
2020/12/05 02:25:48;;;;;;;29.77;3.28;;;6.80;99.90;;;;;;5110224;28;20099;-49
2020/12/05 02:28:17;;;;;;;17.75;2.80;;;6.90;99.90;;;;;;5103565;27;20032;-49
2020/12/05 02:30:43;;;;;;;13.13;2.08;;;7.00;99.90;;;;;;5092136;28;20050;-49
2020/12/05 02:33:09;;;;;;;13.43;2.47;;;7.10;99.90;;;;;;5090223;28;20510;-51
2020/12/05 02:35:35;;;;;;;21.45;3.03;;;7.20;99.90;;;;;;5090651;28;20027;-50
2020/12/05 02:38:25;;;;;;;23.88;3.72;;;7.20;99.90;;;;;;5096546;28;20053;-49
2020/12/05 02:40:51;;;;;;;14.35;2.85;;;7.30;99.90;;;;;;5110630;28;20432;-50
2020/12/05 02:43:18;;;;;;;22.85;2.47;;;7.30;99.90;;;;;;5106300;28;20500;-50
2020/12/05 02:45:59;;;;;;;14.95;2.85;;;7.30;99.90;;;;;;5094777;28;20086;-49
2020/12/05 02:48:25;;;;;;;31.20;3.50;;;7.30;99.90;;;;;;5110644;28;20053;-49
2020/12/05 02:50:50;;;;;;;20.95;3.35;;;7.40;99.90;;;;;;5110783;28;20078;-49
2020/12/05 02:53:16;;;;;;;11.75;2.58;;;7.50;99.90;;;;;;5110987;28;20161;-49
2020/12/05 02:55:42;;;;;;;12.82;1.95;;;7.40;99.90;;;;;;5110760;28;20055;-48
2020/12/05 02:58:07;;;;;;;9.98;2.05;;;7.10;99.90;;;;;;5111067;28;20027;-51
2020/12/05 03:00:33;;;;;;;28.08;3.38;;;6.90;99.90;;;;;;5110684;28;20588;-47
2020/12/05 03:02:59;;;;;;;17.92;3.25;;;6.60;99.90;;;;;;5110886;28;20469;-48
2020/12/05 03:05:24;;;;;;;30.65;2.97;;;6.20;99.90;;;;;;5110713;28;20032;-47
2020/12/05 03:07:50;;;;;;;49.45;3.92;;;5.90;99.90;;;;;;5110959;28;20066;-48
2020/12/05 03:10:16;;;;;;;42.47;4.30;;;5.80;99.90;;;;;;5110703;28;20757;-51
2020/12/05 03:12:41;;;;;;;26.65;3.53;;;5.90;99.90;;;;;;5110661;28;20114;-50
2020/12/05 03:15:07;;;;;;;28.58;4.18;;;6.10;99.90;;;;;;5110987;28;20442;-49
2020/12/05 03:17:33;;;;;;;27.20;4.40;;;6.50;99.90;;;;;;5110930;28;20030;-48
2020/12/05 03:19:59;;;;;;;16.67;3.47;;;6.70;99.90;;;;;;5110804;28;20036;-49
2020/12/05 03:22:24;;;;;;;25.70;3.78;;;6.80;99.90;;;;;;5110384;28;20096;-49
2020/12/05 03:24:50;;;;;;;27.70;4.13;;;6.90;99.90;;;;;;5110471;28;20032;-53
2020/12/05 03:27:16;;;;;;;25.75;3.70;;;6.90;99.90;;;;;;5110419;28;20030;-51
2020/12/05 03:29:42;;;;;;;24.05;3.45;;;6.90;99.90;;;;;;5110147;28;20047;-51
2020/12/05 03:32:13;;;;;;;23.85;3.35;;;6.90;99.90;;;;;;5110384;28;20093;-49
2020/12/05 03:34:41;;;;;;;14.98;3.08;;;6.80;99.90;;;;;;5110168;28;20013;-49
2020/12/05 03:37:09;;;;;;;24.77;3.33;;;6.80;99.90;;;;;;5110687;28;20051;-49
2020/12/05 03:39:34;;;;;;;25.77;3.75;;;6.80;99.90;;;;;;5110838;28;20126;-53
2020/12/05 03:42:00;;;;;;;19.55;2.90;;;6.80;99.90;;;;;;5110609;28;20119;-48
2020/12/05 03:44:26;;;;;;;12.07;2.78;;;6.80;99.90;;;;;;5110469;28;20028;-48
2020/12/05 03:46:51;;;;;;;17.08;2.72;;;6.80;99.90;;;;;;5109205;28;20028;-51
2020/12/05 03:49:17;;;;;;;13.32;2.67;;;6.80;99.90;;;;;;5110254;28;20058;-49
2020/12/05 03:51:43;;;;;;;16.42;3.00;;;6.80;99.90;;;;;;5110189;28;20020;-48
2020/12/05 03:54:08;;;;;;;23.63;3.55;;;6.80;99.90;;;;;;5110446;28;20032;-48
2020/12/05 03:56:34;;;;;;;17.45;3.38;;;6.80;99.90;;;;;;5110585;28;20034;-48
2020/12/05 03:59:00;;;;;;;19.38;3.40;;;6.90;99.90;;;;;;5110709;28;20032;-48
2020/12/05 04:01:25;;;;;;;18.73;3.38;;;7.00;99.90;;;;;;5110294;28;20043;-50
2020/12/05 04:03:51;;;;;;;16.77;3.30;;;7.10;99.90;;;;;;5110107;28;20404;-47
2020/12/05 04:06:17;;;;;;;11.32;2.92;;;7.10;99.90;;;;;;5109626;28;20024;-50
2020/12/05 04:08:43;;;;;;;16.05;2.63;;;7.20;99.90;;;;;;5109711;28;20040;-50
2020/12/05 04:11:08;;;;;;;14.52;1.92;;;7.20;99.90;;;;;;5109504;28;20366;-47
2020/12/05 04:13:35;;;;;;;9.68;1.55;;;7.10;99.90;;;;;;5109717;28;20028;-48
2020/12/05 04:16:00;;;;;;;7.50;1.92;;;7.00;99.90;;;;;;5110335;28;20107;-48
2020/12/05 04:18:26;;;;;;;7.03;1.70;;;6.90;99.90;;;;;;5110332;28;20118;-48
2020/12/05 04:20:52;;;;;;;17.85;1.98;;;6.80;99.90;;;;;;5109193;28;20485;-47
2020/12/05 04:23:18;;;;;;;17.52;1.77;;;6.80;99.90;;;;;;5112448;28;20080;-47
2020/12/05 04:25:43;;;;;;;7.25;1.73;;;6.60;99.90;;;;;;5114178;28;20528;-47
2020/12/05 04:28:09;;;;;;;12.55;1.48;;;6.60;99.90;;;;;;5114545;28;20023;-47
2020/12/05 04:30:34;;;;;;;8.52;1.50;;;6.40;99.90;;;;;;5113733;28;20047;-48
2020/12/05 04:33:00;;;;;;;8.93;1.88;;;6.40;99.90;;;;;;5114059;28;20402;-47
2020/12/05 04:35:26;;;;;;;4.63;2.42;;;6.50;99.90;;;;;;5113510;28;20066;-47
2020/12/05 04:37:51;;;;;;;7.25;0.95;;;6.50;99.90;;;;;;5113570;28;20054;-47
2020/12/05 04:40:18;;;;;;;2.90;1.50;;;6.50;99.90;;;;;;5113764;28;20082;-47
2020/12/05 04:42:48;;;;;;;5.45;1.20;;;6.40;99.90;;;;;;5113834;28;20374;-46
2020/12/05 04:45:14;;;;;;;6.63;1.20;;;6.40;99.90;;;;;;5113868;28;20023;-47
2020/12/05 04:47:41;;;;;;;5.22;1.42;;;6.40;99.90;;;;;;5113833;28;20112;-46
2020/12/05 04:50:08;;;;;;;14.52;2.05;;;6.40;99.90;;;;;;5112970;28;20035;-46
2020/12/05 04:52:39;;;;;;;18.30;1.95;;;6.40;99.90;;;;;;5112803;28;20051;-47
2020/12/05 04:55:06;;;;;;;21.95;2.83;;;6.40;99.90;;;;;;5113617;28;20028;-46
2020/12/05 04:57:44;;;;;;;20.95;2.53;;;6.40;99.90;;;;;;5113602;28;20092;-48
2020/12/05 05:00:10;;;;;;;38.22;3.90;;;6.60;99.90;;;;;;5113412;28;20042;-47
2020/12/05 05:02:40;;;;;;;14.65;3.17;;;6.70;99.90;;;;;;5113309;28;20047;-46
2020/12/05 05:05:09;;;;;;;13.45;2.60;;;6.80;99.90;;;;;;5113221;28;20035;-47
2020/12/05 05:07:45;;;;;;;14.77;2.88;;;7.00;99.90;;;;;;5113215;28;20089;-47
2020/12/05 05:10:17;;;;;;;19.30;3.55;;;7.00;99.90;;;;;;5113221;28;20019;-46
2020/12/05 05:12:42;;;;;;;21.08;2.90;;;6.90;99.90;;;;;;5112391;28;20478;-47
2020/12/05 05:15:18;;;;;;;32.97;4.20;;;6.90;99.90;;;;;;5112745;28;20036;-47
2020/12/05 05:17:49;;;;;;;18.80;3.08;;;6.80;99.90;;;;;;5113236;28;20031;-46
2020/12/05 05:20:21;;;;;;;12.68;2.38;;;6.80;99.90;;;;;;5112525;28;20382;-47
2020/12/05 05:22:54;;;;;;;13.43;2.97;;;6.90;99.90;;;;;;5112678;28;20046;-46
2020/12/05 05:25:21;;;;;;;17.83;3.50;;;6.90;99.90;;;;;;5112607;28;20096;-48
2020/12/05 05:27:59;;;;;;;22.98;2.88;;;6.90;99.90;;;;;;5113166;28;20061;-46
2020/12/05 05:30:25;;;;;;;15.13;2.47;;;6.90;99.90;;;;;;5112850;28;20077;-45
2020/12/05 05:33:03;;;;;;;23.17;2.97;;;6.90;99.90;;;;;;5112727;28;20043;-46
2020/12/05 05:35:36;;;;;;;18.48;2.63;;;6.90;99.90;;;;;;5111171;28;20123;-46
2020/12/05 05:38:03;;;;;;;20.88;2.97;;;7.00;99.90;;;;;;5112551;28;20048;-46
2020/12/05 05:40:29;;;;;;;21.70;2.60;;;7.00;99.90;;;;;;5110972;28;20027;-47
2020/12/05 05:42:54;;;;;;;12.45;3.20;;;7.00;99.90;;;;;;5112852;28;20039;-46
2020/12/05 05:45:27;;;;;;;18.33;2.72;;;7.00;99.90;;;;;;5112674;28;20024;-46
2020/12/05 05:48:02;;;;;;;13.07;2.30;;;7.00;99.90;;;;;;5102976;27;20024;-47
2020/12/05 05:50:33;;;;;;;14.73;2.15;;;7.00;99.90;;;;;;5090815;28;20111;-46
2020/12/05 05:53:04;;;;;;;24.42;3.03;;;7.00;99.90;;;;;;5091496;28;20093;-46
2020/12/05 05:55:50;;;;;;;25.92;2.63;;;7.00;99.90;;;;;;5091589;28;20034;-46
2020/12/05 05:58:20;;;;;;;22.40;2.70;;;7.00;99.90;;;;;;5103525;28;20028;-45
2020/12/05 06:00:51;;;;;;;18.08;2.88;;;7.00;99.90;;;;;;5111755;28;20033;-47
2020/12/05 06:03:23;;;;;;;15.23;2.45;;;7.00;99.90;;;;;;5091912;27;20032;-46
2020/12/05 06:06:07;;;;;;;13.32;2.70;;;6.90;99.90;;;;;;5090909;28;20072;-46
2020/12/05 06:08:34;;;;;;;19.10;2.17;;;6.90;99.90;;;;;;5105023;28;20036;-47
2020/12/05 06:11:02;;;;;;;21.05;2.30;;;6.90;99.90;;;;;;5111129;28;20092;-45
2020/12/05 06:13:29;;;;;;;9.73;2.13;;;6.90;99.90;;;;;;5110606;28;20470;-45
2020/12/05 06:15:57;;;;;;;16.20;2.63;;;6.90;99.90;;;;;;5110954;28;20571;-45
2020/12/05 06:18:22;;;;;;;16.67;2.03;;;6.90;99.90;;;;;;5099490;28;20039;-45
2020/12/05 06:20:48;;;;;;;16.10;2.10;;;7.00;99.90;;;;;;5090378;27;20047;-45
2020/12/05 06:23:32;;;;;;;19.60;2.88;;;6.90;99.90;;;;;;5103878;28;20055;-47
2020/12/05 06:26:01;;;;;;;18.58;2.78;;;6.90;99.90;;;;;;5110841;28;20035;-45
2020/12/05 06:28:27;;;;;;;17.25;2.42;;;6.90;99.90;;;;;;5110361;28;20419;-46
2020/12/05 06:30:53;;;;;;;11.93;2.03;;;6.90;99.90;;;;;;5110505;28;20074;-45
2020/12/05 06:33:39;;;;;;;16.90;2.25;;;6.90;99.90;;;;;;5100207;27;20478;-45
2020/12/05 06:36:26;;;;;;;20.33;2.78;;;6.90;99.90;;;;;;5090086;28;20039;-45
2020/12/05 06:39:11;;;;;;;11.55;2.30;;;6.90;99.90;;;;;;5106775;28;20047;-45
2020/12/05 06:41:42;;;;;;;13.80;2.53;;;6.90;99.90;;;;;;5110055;28;20093;-47
2020/12/05 06:44:20;;;;;;;15.95;2.50;;;6.90;99.90;;;;;;5098645;28;20030;-46
2020/12/05 06:46:52;;;;;;;16.98;2.70;;;6.90;99.90;;;;;;5109849;28;20031;-45
2020/12/05 06:49:39;;;;;;;17.67;2.92;;;6.90;99.90;;;;;;5089737;28;20051;-46
2020/12/05 06:52:28;;;;;;;12.15;2.03;;;7.00;99.90;;;;;;5093369;28;20035;-45
2020/12/05 06:55:00;;;;;;;27.45;2.85;;;7.00;99.90;;;;;;5110550;28;20027;-46
2020/12/05 06:57:28;;;;;;;11.77;2.38;;;6.90;99.90;;;;;;5104149;27;20032;-45
2020/12/05 07:00:18;;;;;;;10.38;2.35;;;6.90;99.90;;;;;;5089882;28;20089;-46
2020/12/05 07:02:54;;;;;;;18.20;3.08;;;6.90;99.90;;;;;;5095704;27;20048;-47
2020/12/05 07:05:20;;;;;;;9.63;2.45;;;6.80;99.90;;;;;;5095402;28;20040;-46
2020/12/05 07:07:47;;;;;;;12.40;2.40;;;6.90;99.90;;;;;;5099282;27;20038;-45
2020/12/05 07:10:14;;;;;;;16.42;2.65;;;6.90;99.90;;;;;;5092873;27;20040;-46
2020/12/05 07:12:41;;;;;;;18.95;3.03;;;6.90;99.90;;;;;;5099418;27;20388;-48
2020/12/05 07:15:21;;;;;;;13.80;2.20;;;6.90;99.90;;;;;;5090389;28;20032;-46
2020/12/05 07:17:48;;;;;;;14.98;2.45;;;6.90;99.90;;;;;;5092783;28;20451;-45
2020/12/05 07:20:13;;;;;;;16.23;2.90;;;6.90;99.90;;;;;;5106281;27;20035;-45
2020/12/05 07:22:39;;;;;;;15.32;2.33;;;6.90;99.90;;;;;;5092200;28;20040;-45
2020/12/05 07:25:05;;;;;;;15.25;2.78;;;6.80;99.90;;;;;;5096810;28;20020;-46
2020/12/05 07:27:31;;;;;;;13.18;2.30;;;6.80;99.90;;;;;;5090480;28;20082;-46
2020/12/05 07:29:56;;;;;;;20.65;2.58;;;6.90;99.90;;;;;;5094595;28;20469;-46
2020/12/05 07:32:28;;;;;;;15.40;2.60;;;6.90;99.90;;;;;;5098780;28;20035;-45
2020/12/05 07:34:54;;;;;;;18.00;3.38;;;7.00;99.90;;;;;;5099465;28;20028;-46
2020/12/05 07:37:27;;;;;;;26.85;2.65;;;6.90;99.90;;;;;;5099007;28;20063;-47
2020/12/05 07:39:56;;;;;;;14.73;3.67;;;6.90;99.90;;;;;;5095928;28;20375;-46
2020/12/05 07:42:22;;;;;;;16.98;3.17;;;6.80;99.90;;;;;;5098729;28;20064;-46
2020/12/05 07:44:48;;;;;;;29.08;3.50;;;6.90;99.90;;;;;;5095497;28;20030;-49
2020/12/05 07:47:21;;;;;;;27.75;4.57;;;6.90;99.90;;;;;;5099100;28;20039;-46
2020/12/05 07:49:54;;;;;;;19.70;3.27;;;6.90;99.90;;;;;;5097143;28;20033;-46
2020/12/05 07:52:21;;;;;;;35.15;4.50;;;6.80;99.90;;;;;;5098263;28;20276;-46
2020/12/05 07:54:55;;;;;;;11.10;3.60;;;6.80;99.90;;;;;;5098464;28;20032;-45
2020/12/05 07:57:25;;;;;;;30.55;4.22;;;6.80;99.90;;;;;;5088714;28;20044;-45
2020/12/05 07:59:59;;;;;;;19.33;3.95;;;6.70;99.90;;;;;;5102496;28;20031;-46
2020/12/05 08:02:33;;;;;;;19.92;3.17;;;6.80;99.90;;;;;;5102987;27;20707;-48
2020/12/05 08:05:07;;;;;;;20.75;3.17;;;6.80;99.90;;;;;;5100359;27;20041;-45
2020/12/05 08:07:44;;;;;;;26.63;4.28;;;6.80;99.90;;;;;;5104532;27;20042;-46
2020/12/05 08:10:16;;;;;;;22.10;3.22;;;6.80;99.90;;;;;;5104353;28;20437;-45
2020/12/05 08:12:45;;;;;;;11.07;3.08;;;6.90;99.90;;;;;;5101844;28;20366;-45
2020/12/05 08:15:22;;;;;;;26.85;4.60;;;6.90;99.90;;;;;;5100363;27;20063;-46
2020/12/05 08:17:49;;;;;;;22.30;3.25;;;6.90;99.90;;;;;;5095429;28;20028;-46
2020/12/05 08:20:15;;;;;;;22.65;2.75;;;6.90;99.90;;;;;;5096819;27;20481;-46
2020/12/05 08:22:41;;;;;;;31.40;4.05;;;6.90;99.90;;;;;;5105885;27;20529;-46
2020/12/05 08:25:10;;;;;;;18.23;3.38;;;6.90;99.90;;;;;;5102207;27;20027;-46
2020/12/05 08:27:37;;;;;;;13.48;3.10;;;6.90;99.90;;;;;;5106881;27;20441;-45
2020/12/05 08:30:05;;;;;;;16.88;3.13;;;7.00;99.90;;;;;;5092600;28;20023;-46
2020/12/05 08:32:31;;;;;;;21.65;3.03;;;7.10;99.90;;;;;;5094682;28;20377;-46
2020/12/05 08:35:13;;;;;;;17.52;3.13;;;7.10;99.90;;;;;;5105149;27;20411;-47
2020/12/05 08:37:43;;;;;;;12.55;3.65;;;7.00;99.90;;;;;;5106993;28;21244;-46
2020/12/05 08:40:18;;;;;;;9.88;2.63;;;7.10;99.90;;;;;;5115805;27;20027;-45
2020/12/05 08:42:47;;;;;;;16.48;3.38;;;7.10;99.90;;;;;;5099480;27;20039;-47
2020/12/05 08:45:17;;;;;;;26.08;4.03;;;7.10;99.90;;;;;;5100778;28;20036;-46
2020/12/05 08:47:47;;;;;;;20.73;3.55;;;7.10;99.90;;;;;;5104426;28;20701;-45
2020/12/05 08:50:22;;;;;;;15.13;3.30;;;7.10;99.90;;;;;;5092115;27;20386;-45
2020/12/05 08:52:53;;;;;;;19.15;3.25;;;7.20;99.90;;;;;;5096547;28;20028;-45
2020/12/05 08:55:22;;;;;;;24.27;3.72;;;7.20;99.90;;;;;;5098677;28;20086;-46
2020/12/05 08:57:56;;;;;;;32.33;4.18;;;7.20;99.90;;;;;;5093636;27;20550;-45
2020/12/05 09:00:22;;;;;;;20.30;2.80;;;7.20;99.90;;;;;;5105267;28;20040;-45
2020/12/05 09:02:48;;;;;;;17.15;2.90;;;7.20;99.90;;;;;;5108264;28;20035;-46
2020/12/05 09:05:14;;;;;;;23.60;3.75;;;7.20;99.90;;;;;;5095628;27;20031;-46
2020/12/05 09:08:00;;;;;;;27.10;4.28;;;7.30;99.90;;;;;;5090381;27;20031;-51
2020/12/05 09:10:28;;;;;;;23.40;2.97;;;7.30;99.90;;;;;;5093132;27;20422;-45
2020/12/05 09:13:06;;;;;;;21.23;3.95;;;7.30;99.90;;;;;;5088232;28;20032;-46
2020/12/05 09:15:32;;;;;;;18.40;3.53;;;7.30;99.90;;;;;;5094056;27;20040;-46
2020/12/05 09:17:58;;;;;;;12.90;2.95;;;7.30;99.90;;;;;;5103806;28;20031;-46
2020/12/05 09:20:24;;;;;;;15.50;3.85;;;7.40;99.90;;;;;;5104113;28;21222;-48
2020/12/05 09:22:52;;;;;;;24.80;3.10;;;7.40;99.90;;;;;;5104849;28;20039;-45
2020/12/05 09:25:33;;;;;;;20.35;3.38;;;7.40;99.90;;;;;;5103826;27;20032;-45
2020/12/05 09:28:00;;;;;;;12.82;2.85;;;7.30;99.90;;;;;;5104933;27;20031;-45
2020/12/05 09:30:28;;;;;;;28.33;3.53;;;7.30;99.90;;;;;;5108064;27;20532;-45
2020/12/05 09:32:53;;;;;;;15.15;2.53;;;7.30;99.90;;;;;;5108381;27;20461;-47
2020/12/05 09:35:22;;;;;;;14.73;3.00;;;7.40;99.90;;;;;;5100182;27;20046;-45
2020/12/05 09:37:48;;;;;;;14.45;2.60;;;7.40;99.90;;;;;;5107485;28;20339;-45
2020/12/05 09:40:17;;;;;;;19.35;2.88;;;7.40;99.90;;;;;;5100920;27;20036;-46
2020/12/05 09:42:43;;;;;;;21.23;3.10;;;7.40;99.90;;;;;;5109565;27;20477;-45
2020/12/05 09:45:11;;;;;;;23.52;3.42;;;7.50;99.90;;;;;;5106695;28;20093;-45
2020/12/05 09:47:38;;;;;;;12.07;2.95;;;7.50;99.90;;;;;;5105400;27;20031;-47
2020/12/05 09:50:05;;;;;;;21.27;3.92;;;7.50;99.90;;;;;;5098682;28;20760;-46
2020/12/05 09:52:30;;;;;;;17.88;3.38;;;7.60;99.90;;;;;;5102832;28;20092;-45
2020/12/05 09:54:56;;;;;;;20.83;3.60;;;7.70;99.90;;;;;;5108151;28;20036;-46
2020/12/05 09:57:22;;;;;;;13.88;3.03;;;7.60;99.90;;;;;;5103761;27;20480;-46
2020/12/05 09:59:48;;;;;;;18.02;3.17;;;7.70;99.90;;;;;;5099420;27;20028;-45
2020/12/05 10:02:14;;;;;;;18.05;3.88;;;7.70;99.90;;;;;;5094738;28;20042;-46
2020/12/05 10:04:40;;;;;;;20.38;3.55;;;7.60;99.90;;;;;;5096490;27;20035;-46
2020/12/05 10:07:06;;;;;;;21.08;3.47;;;7.60;99.90;;;;;;5106860;28;20046;-45
2020/12/05 10:09:32;;;;;;;31.20;3.60;;;7.60;99.90;;;;;;5109764;28;20031;-45
2020/12/05 10:11:58;;;;;;;15.63;3.65;;;7.60;99.90;;;;;;5100759;28;20375;-45
2020/12/05 10:14:24;;;;;;;13.57;4.07;;;7.50;99.90;;;;;;5108960;28;20035;-45
2020/12/05 10:16:50;;;;;;;26.23;4.65;;;7.60;99.90;;;;;;5109040;28;20039;-46
2020/12/05 10:19:16;;;;;;;17.38;3.17;;;7.60;99.90;;;;;;5108499;28;20027;-46
2020/12/05 10:21:51;;;;;;;16.83;3.08;;;7.60;99.90;;;;;;5088729;28;20505;-46
2020/12/05 10:24:18;;;;;;;21.00;4.20;;;7.60;99.90;;;;;;5108858;28;20038;-45
2020/12/05 10:27:01;;;;;;;13.85;3.20;;;7.60;99.90;;;;;;5103296;28;20035;-45
2020/12/05 10:29:27;;;;;;;26.80;5.13;;;7.50;99.90;;;;;;5072495;28;20032;-45
2020/12/05 10:31:54;;;;;;;11.75;3.53;;;7.50;99.90;;;;;;5089602;28;20031;-47
2020/12/05 10:34:21;;;;;;;14.00;3.53;;;7.50;99.90;;;;;;5093876;27;20035;-45
2020/12/05 10:36:47;;;;;;;22.30;3.60;;;7.50;99.90;;;;;;5091816;27;20134;-46
2020/12/05 10:39:13;;;;;;;25.85;3.88;;;7.60;99.90;;;;;;5097453;27;20442;-45
2020/12/05 10:41:42;;;;;;;26.52;3.55;;;7.60;99.90;;;;;;5111431;27;20138;-47
2020/12/05 10:44:09;;;;;;;28.00;5.22;;;7.70;99.90;;;;;;5112290;27;20031;-45
2020/12/05 10:46:43;;;;;;;17.27;3.42;;;7.80;99.90;;;;;;5115660;27;20055;-45
2020/12/05 10:49:09;;;;;;;16.25;3.25;;;7.70;99.90;;;;;;5102199;27;20036;-45
2020/12/05 10:51:36;;;;;;;26.95;4.18;;;7.60;99.90;;;;;;5105348;27;20036;-45
2020/12/05 10:54:02;;;;;;;19.20;3.70;;;7.60;99.90;;;;;;5118742;27;20091;-46
2020/12/05 10:56:28;;;;;;;12.63;3.33;;;7.60;99.90;;;;;;5107309;27;20045;-45
2020/12/05 10:58:53;;;;;;;32.63;4.40;;;7.60;99.90;;;;;;5111344;27;20359;-45
2020/12/05 11:01:19;;;;;;;26.08;4.25;;;7.60;99.90;;;;;;5105296;28;20474;-46
2020/12/05 11:03:45;;;;;;;21.10;4.50;;;7.60;99.90;;;;;;5099032;27;20085;-45
2020/12/05 11:06:11;;;;;;;19.85;3.58;;;7.60;99.90;;;;;;5100019;28;20039;-45
2020/12/05 11:08:37;;;;;;;26.92;4.05;;;7.60;99.90;;;;;;5099908;28;20521;-48
2020/12/05 11:11:03;;;;;;;14.60;3.00;;;7.50;99.90;;;;;;5108615;28;20027;-45
2020/12/05 11:13:28;;;;;;;30.38;7.28;;;7.40;99.90;;;;;;5101370;28;20020;-45
2020/12/05 11:15:54;;;;;;;18.50;4.05;;;7.40;99.90;;;;;;5098904;28;20031;-45
2020/12/05 11:18:19;;;;;;;14.48;3.90;;;7.50;99.90;;;;;;5106177;28;20119;-45
2020/12/05 11:20:45;;;;;;;18.75;4.07;;;7.60;99.90;;;;;;5091544;28;20023;-45
2020/12/05 11:23:11;;;;;;;30.55;3.97;;;7.50;99.90;;;;;;5102863;27;20138;-45
2020/12/05 11:25:37;;;;;;;23.35;3.92;;;7.50;99.90;;;;;;5118308;27;20452;-46
2020/12/05 11:28:03;;;;;;;19.08;3.83;;;7.50;99.90;;;;;;5119343;28;20031;-46
2020/12/05 11:30:29;;;;;;;15.77;4.00;;;7.50;99.90;;;;;;5097531;28;20200;-46
2020/12/05 11:32:55;;;;;;;25.15;3.90;;;7.50;99.90;;;;;;5108528;27;20035;-47
2020/12/05 11:35:20;;;;;;;26.17;5.13;;;7.50;99.90;;;;;;5118318;27;20077;-45
2020/12/05 11:37:46;;;;;;;26.30;4.60;;;7.40;99.90;;;;;;5119763;27;20051;-45
2020/12/05 11:40:12;;;;;;;33.40;4.68;;;7.50;99.90;;;;;;5107971;27;20051;-45
2020/12/05 11:42:37;;;;;;;18.65;4.00;;;7.60;99.90;;;;;;5109987;27;20031;-47
2020/12/05 11:45:04;;;;;;;29.08;5.10;;;7.60;99.90;;;;;;5099000;28;20032;-45
2020/12/05 11:47:29;;;;;;;21.60;5.10;;;7.50;99.90;;;;;;5107789;28;20051;-45
2020/12/05 11:49:55;;;;;;;29.67;5.28;;;7.50;99.90;;;;;;5101080;27;20020;-45
2020/12/05 11:52:21;;;;;;;33.53;8.63;;;7.50;99.90;;;;;;5095423;27;20040;-45
2020/12/05 11:54:46;;;;;;;22.25;4.88;;;7.50;99.90;;;;;;5097718;28;20028;-46
2020/12/05 11:57:12;;;;;;;23.35;5.82;;;7.50;99.90;;;;;;5112886;28;20039;-46
2020/12/05 11:59:41;;;;;;;33.95;5.53;;;7.50;99.90;;;;;;5112987;28;20115;-45
2020/12/05 12:02:10;;;;;;;18.60;5.13;;;7.50;99.90;;;;;;5112473;28;20489;-47
2020/12/05 12:04:39;;;;;;;19.98;5.15;;;7.50;99.90;;;;;;5108590;28;20016;-45
2020/12/05 12:07:05;;;;;;;20.10;4.88;;;7.40;99.90;;;;;;5095101;27;20047;-45
2020/12/05 12:09:33;;;;;;;26.10;5.07;;;7.30;99.90;;;;;;5109896;28;20427;-45
2020/12/05 12:11:59;;;;;;;24.77;5.50;;;7.30;99.90;;;;;;5109092;28;20666;-46
2020/12/05 12:14:31;;;;;;;23.08;5.32;;;7.30;99.90;;;;;;5110861;28;20568;-45
2020/12/05 12:16:56;;;;;;;22.10;5.22;;;7.20;99.90;;;;;;5111238;28;20083;-45
2020/12/05 12:19:22;;;;;;;18.77;4.63;;;7.10;99.90;;;;;;5110905;28;20033;-45
2020/12/05 12:21:48;;;;;;;17.85;4.70;;;7.10;99.90;;;;;;5096324;28;20032;-45
2020/12/05 12:24:16;;;;;;;16.67;5.18;;;7.10;99.90;;;;;;5111288;28;20565;-45
2020/12/05 12:26:42;;;;;;;39.47;7.28;;;7.20;99.90;;;;;;5112908;28;20035;-45
2020/12/05 12:29:08;;;;;;;29.92;4.97;;;7.20;99.90;;;;;;5112953;28;20035;-45
2020/12/05 12:31:33;;;;;;;26.77;5.75;;;7.30;99.90;;;;;;5112625;28;20031;-46
2020/12/05 12:33:59;;;;;;;19.63;4.35;;;7.30;99.90;;;;;;5112377;28;20067;-45
2020/12/05 12:36:25;;;;;;;26.35;4.78;;;7.20;99.90;;;;;;5101661;28;20032;-46
2020/12/05 12:38:50;;;;;;;17.55;4.40;;;7.20;99.90;;;;;;5107536;28;20031;-46
2020/12/05 12:41:17;;;;;;;18.02;4.43;;;7.10;99.90;;;;;;5112454;28;20393;-45
2020/12/05 12:43:43;;;;;;;25.95;4.68;;;7.20;99.90;;;;;;5111408;28;20023;-45
2020/12/05 12:46:10;;;;;;;23.67;3.53;;;7.20;99.90;;;;;;5112998;28;20027;-45
2020/12/05 12:51:01;;;;;;;18.38;3.90;;;7.30;99.90;;;;;;5105892;28;20089;-45
2020/12/05 12:53:27;;;;;;;19.67;4.30;;;7.30;99.90;;;;;;5104398;28;20449;-45
2020/12/05 12:55:53;;;;;;;22.92;3.53;;;7.40;99.90;;;;;;5112103;28;20026;-45
2020/12/05 13:00:53;;;;;;;20.23;3.92;;;7.40;99.90;;;;;;5111098;28;20082;-45